Time;durP1;ratioP1;P1;durP2;ratioP2;P2;SDS_P1;SDS_P2;PMS_P1;PMS_P2;Temp;Humidity;BMP_temperature;BMP_pressure;BME280_temperature;BME280_humidity;BME280_pressure;Samples;Min_cycle;Max_cycle;Signal;HPM_P1;HPM_P2
2023/08/01 00:01:15;;;;;;;5.63;3.22;;;;;;;18.25;84.04;99839.88;7387264;19;20015;-65
2023/08/01 00:03:42;;;;;;;5.75;3.33;;;;;;;18.32;83.90;99831.94;7389285;19;20018;-64
2023/08/01 00:06:10;;;;;;;6.05;3.40;;;;;;;18.32;83.89;99837.28;7388725;19;20231;-65
2023/08/01 00:08:37;;;;;;;4.60;3.40;;;;;;;18.30;84.05;99835.81;7390638;19;20025;-64
2023/08/01 00:11:04;;;;;;;5.50;3.45;;;;;;;18.28;83.98;99814.56;7389781;19;20495;-64
2023/08/01 00:13:32;;;;;;;6.63;3.53;;;;;;;18.30;84.15;99822.41;7389138;19;20098;-64
2023/08/01 00:15:59;;;;;;;5.97;3.95;;;;;;;18.30;84.26;99809.84;7389341;19;20498;-64
2023/08/01 00:18:34;;;;;;;6.30;3.90;;;;;;;18.30;83.95;99817.03;7390315;19;20464;-66
2023/08/01 00:21:02;;;;;;;7.93;3.97;;;;;;;18.32;83.91;99812.34;7388632;19;20494;-66
2023/08/01 00:23:29;;;;;;;5.72;3.75;;;;;;;18.34;83.75;99807.63;7389112;19;20094;-66
2023/08/01 00:25:57;;;;;;;6.45;3.83;;;;;;;18.31;83.82;99805.31;7389259;19;20018;-66
2023/08/01 00:28:24;;;;;;;6.90;4.20;;;;;;;18.27;83.92;99800.31;7390093;19;20019;-67
2023/08/01 00:31:04;;;;;;;6.53;4.28;;;;;;;18.37;83.87;99793.84;7388559;19;20015;-66
2023/08/01 00:33:32;;;;;;;7.00;4.20;;;;;;;18.34;83.86;99791.53;7389828;19;20025;-62
2023/08/01 00:36:00;;;;;;;7.97;4.20;;;;;;;18.31;84.10;99782.00;7387383;19;20022;-65
2023/08/01 00:38:28;;;;;;;8.07;4.40;;;;;;;18.34;84.16;99783.50;7395663;19;20035;-66
2023/08/01 00:40:55;;;;;;;9.43;4.70;;;;;;;18.30;84.20;99783.03;7395337;19;20019;-66
2023/08/01 00:43:23;;;;;;;8.00;4.40;;;;;;;18.32;83.89;99777.50;7394958;19;20029;-66
2023/08/01 00:45:51;;;;;;;8.32;4.50;;;;;;;18.30;83.89;99768.81;7395227;19;20018;-66
2023/08/01 00:48:19;;;;;;;6.15;4.28;;;;;;;18.30;83.76;99777.66;7396779;19;20409;-67
2023/08/01 00:50:47;;;;;;;7.70;4.85;;;;;;;18.32;83.70;99780.19;7397462;19;20345;-66
2023/08/01 00:53:14;;;;;;;8.40;4.82;;;;;;;18.30;83.58;99766.94;7394610;19;20022;-67
2023/08/01 00:55:42;;;;;;;7.82;5.30;;;;;;;18.23;84.01;99772.22;7396142;19;20018;-66
2023/08/01 00:58:09;;;;;;;8.27;4.43;;;;;;;18.20;83.92;99758.34;7396441;19;20025;-66
2023/08/01 01:00:36;;;;;;;7.97;4.50;;;;;;;18.22;83.67;99765.19;7395501;19;20025;-67
2023/08/01 01:03:05;;;;;;;8.48;5.03;;;;;;;18.22;83.88;99770.56;7393312;19;20419;-67
2023/08/01 01:05:36;;;;;;;7.25;4.47;;;;;;;18.18;84.21;99755.88;7393340;19;20022;-66
2023/08/01 01:08:04;;;;;;;8.77;4.80;;;;;;;18.24;83.79;99754.31;7396337;19;20014;-66
2023/08/01 01:10:32;;;;;;;6.45;4.30;;;;;;;18.24;83.63;99749.78;7395395;19;20030;-66
2023/08/01 01:12:59;;;;;;;8.07;4.75;;;;;;;18.23;83.99;99742.72;7391337;19;20022;-66
2023/08/01 01:15:27;;;;;;;8.05;5.18;;;;;;;18.21;83.45;99736.75;7393849;19;20025;-66
2023/08/01 01:17:54;;;;;;;8.95;4.70;;;;;;;18.14;84.11;99727.78;7394195;19;20444;-66
2023/08/01 01:20:24;;;;;;;7.50;4.28;;;;;;;18.21;83.75;99725.19;7395000;19;20015;-66
2023/08/01 01:22:55;;;;;;;8.07;4.50;;;;;;;18.21;83.76;99725.19;7394432;19;20026;-66
2023/08/01 01:25:25;;;;;;;8.82;4.90;;;;;;;18.20;83.63;99724.38;7395544;19;20096;-67
2023/08/01 01:27:53;;;;;;;9.00;4.90;;;;;;;18.18;83.61;99723.72;7395786;19;20464;-66
2023/08/01 01:30:22;;;;;;;7.53;4.95;;;;;;;18.14;83.83;99724.28;7395696;19;20015;-66
2023/08/01 01:32:49;;;;;;;9.15;4.80;;;;;;;18.15;83.57;99715.22;7394333;19;20357;-67
2023/08/01 01:35:16;;;;;;;9.25;4.60;;;;;;;18.12;83.53;99715.59;7394865;19;20022;-66
2023/08/01 01:37:44;;;;;;;7.75;4.97;;;;;;;18.16;83.55;99711.50;7393809;19;20014;-66
2023/08/01 01:40:11;;;;;;;9.05;4.95;;;;;;;18.16;83.19;99711.50;7395438;19;20039;-66
2023/08/01 01:42:38;;;;;;;7.55;5.20;;;;;;;18.16;83.61;99711.50;7393720;19;20047;-67
2023/08/01 01:45:06;;;;;;;8.93;4.68;;;;;;;18.17;83.40;99707.84;7394544;19;20042;-61
2023/08/01 01:47:33;;;;;;;10.25;4.53;;;;;;;18.10;83.62;99714.97;7394724;19;20126;-63
2023/08/01 01:50:01;;;;;;;8.80;4.78;;;;;;;18.08;83.42;99706.28;7391015;19;20018;-67
2023/08/01 01:52:28;;;;;;;8.48;4.97;;;;;;;18.05;83.29;99714.69;7393914;19;20120;-70
2023/08/01 01:54:55;;;;;;;8.15;4.53;;;;;;;18.05;83.76;99703.97;7394071;19;20524;-65
2023/08/01 01:57:23;;;;;;;8.07;5.15;;;;;;;18.06;83.40;99702.97;7394385;19;20483;-65
2023/08/01 01:59:50;;;;;;;9.50;5.03;;;;;;;18.08;83.27;99700.91;7394868;19;20039;-64
2023/08/01 02:02:17;;;;;;;7.82;4.80;;;;;;;18.08;83.05;99693.69;7393340;19;20015;-65
2023/08/01 02:04:50;;;;;;;9.70;4.47;;;;;;;18.09;83.28;99692.69;7393682;19;20018;-64
2023/08/01 02:07:17;;;;;;;10.20;4.75;;;;;;;18.04;83.22;99687.06;7394415;19;20014;-65
2023/08/01 02:09:46;;;;;;;8.45;4.55;;;;;;;18.04;83.16;99689.72;7394159;19;20519;-64
2023/08/01 02:12:16;;;;;;;8.63;4.55;;;;;;;18.02;83.08;99683.75;7393793;19;20107;-65
2023/08/01 02:14:43;;;;;;;7.85;4.40;;;;;;;18.00;83.16;99675.06;7392859;19;20031;-65
2023/08/01 02:17:10;;;;;;;8.27;4.82;;;;;;;18.04;83.25;99681.69;7394659;19;20014;-65
2023/08/01 02:19:37;;;;;;;8.00;4.57;;;;;;;18.07;82.78;99664.44;7393510;19;20018;-64
2023/08/01 02:22:05;;;;;;;9.75;4.40;;;;;;;18.05;82.89;99659.28;7391903;19;20029;-65
2023/08/01 02:24:32;;;;;;;8.43;4.40;;;;;;;18.08;82.79;99674.13;7393520;19;20043;-65
2023/08/01 02:26:59;;;;;;;6.80;4.72;;;;;;;18.00;82.84;99661.66;7392605;19;20050;-65
2023/08/01 02:29:27;;;;;;;10.50;5.15;;;;;;;17.98;83.34;99664.53;7393679;19;20055;-65
2023/08/01 02:31:56;;;;;;;8.73;4.95;;;;;;;17.96;82.84;99663.06;7393607;19;20060;-65
2023/08/01 02:34:23;;;;;;;10.20;5.10;;;;;;;17.99;82.93;99651.97;7396200;19;20022;-65
2023/08/01 02:36:50;;;;;;;10.70;5.90;;;;;;;18.03;82.89;99654.06;7392633;19;20028;-65
2023/08/01 02:39:17;;;;;;;10.30;5.25;;;;;;;18.00;82.78;99646.41;7393067;19;20011;-64
2023/08/01 02:41:45;;;;;;;9.55;5.72;;;;;;;18.09;82.91;99657.88;7390222;19;20010;-64
2023/08/01 02:44:12;;;;;;;9.18;5.22;;;;;;;18.11;82.49;99649.63;7393454;19;20026;-64
2023/08/01 02:46:40;;;;;;;11.82;5.10;;;;;;;17.96;82.97;99644.31;7392300;19;20022;-64
2023/08/01 02:49:08;;;;;;;12.90;5.72;;;;;;;17.90;83.09;99645.06;7392703;19;20621;-64
2023/08/01 02:51:35;;;;;;;10.20;5.00;;;;;;;17.94;82.86;99632.97;7392310;19;20086;-64
2023/08/01 02:54:02;;;;;;;8.55;5.28;;;;;;;17.96;82.89;99641.63;7393078;19;20502;-64
2023/08/01 02:56:29;;;;;;;9.90;5.63;;;;;;;18.00;82.96;99638.38;7392143;19;20015;-64
2023/08/01 02:58:57;;;;;;;8.68;5.80;;;;;;;17.98;83.09;99640.44;7392937;19;20022;-64
2023/08/01 03:01:24;;;;;;;9.25;5.60;;;;;;;17.98;83.11;99631.56;7390470;19;20102;-64
2023/08/01 03:03:51;;;;;;;7.35;4.35;;;;;;;17.94;82.70;99632.97;7391072;19;20018;-64
2023/08/01 03:06:19;;;;;;;5.35;2.75;;;;;;;17.90;81.69;99629.00;7391195;19;20022;-64
2023/08/01 03:08:47;;;;;;;5.13;2.50;;;;;;;17.82;81.95;99634.44;7392556;19;20025;-67
2023/08/01 03:11:14;;;;;;;4.95;2.25;;;;;;;17.80;81.31;99629.28;7392872;19;20086;-67
2023/08/01 03:13:42;;;;;;;5.03;2.30;;;;;;;17.83;81.23;99620.06;7390281;19;20054;-67
2023/08/01 03:16:10;;;;;;;6.28;2.10;;;;;;;17.82;80.98;99626.41;7391203;19;20018;-66
2023/08/01 03:18:37;;;;;;;4.07;2.15;;;;;;;17.76;81.11;99607.41;7391977;19;20026;-66
2023/08/01 03:21:04;;;;;;;4.00;2.20;;;;;;;17.83;81.17;99617.38;7391778;19;20085;-66
2023/08/01 03:23:32;;;;;;;6.25;2.35;;;;;;;17.85;81.33;99612.66;7389899;19;20019;-66
2023/08/01 03:25:59;;;;;;;7.18;2.80;;;;;;;17.81;81.77;99608.69;7389430;19;20023;-68
2023/08/01 03:28:27;;;;;;;7.07;3.15;;;;;;;17.87;81.74;99599.91;7391107;19;20042;-69
2023/08/01 03:30:54;;;;;;;6.97;3.63;;;;;;;17.85;81.76;99607.28;7391502;19;20029;-68
2023/08/01 03:33:22;;;;;;;8.85;5.30;;;;;;;17.92;81.83;99609.03;7390923;19;20026;-68
2023/08/01 03:35:49;;;;;;;11.75;7.20;;;;;;;17.91;82.08;99602.00;7390925;19;20484;-69
2023/08/01 03:38:16;;;;;;;12.93;7.35;;;;;;;17.83;82.79;99606.66;7391571;19;20033;-69
2023/08/01 03:40:43;;;;;;;11.50;7.25;;;;;;;17.90;82.38;99623.66;7390392;19;20034;-70
2023/08/01 03:43:11;;;;;;;13.07;8.23;;;;;;;17.90;82.68;99624.47;7390692;19;20096;-68
2023/08/01 03:45:38;;;;;;;16.98;8.40;;;;;;;17.96;82.40;99630.91;7390595;19;20026;-69
2023/08/01 03:48:05;;;;;;;11.23;7.75;;;;;;;17.91;82.68;99623.44;7391137;19;20022;-69
2023/08/01 03:50:33;;;;;;;12.88;8.73;;;;;;;17.87;82.82;99627.53;7389285;19;20101;-70
2023/08/01 03:53:00;;;;;;;12.52;8.35;;;;;;;17.88;82.86;99628.34;7390269;19;20046;-69
2023/08/01 03:55:28;;;;;;;12.20;8.40;;;;;;;17.89;82.93;99633.50;7390445;19;20018;-69
2023/08/01 03:57:55;;;;;;;13.43;8.57;;;;;;;17.90;82.80;99642.41;7390628;19;20389;-70
2023/08/01 04:00:22;;;;;;;14.43;8.45;;;;;;;17.88;82.60;99631.03;7390797;19;20043;-69
2023/08/01 04:02:50;;;;;;;12.77;8.98;;;;;;;17.89;82.51;99627.31;7389218;19;20022;-70
2023/08/01 04:05:17;;;;;;;13.73;8.98;;;;;;;17.86;83.00;99625.00;7388741;19;20055;-70
2023/08/01 04:07:45;;;;;;;15.88;10.25;;;;;;;17.91;82.56;99631.47;7390697;19;20513;-70
2023/08/01 04:10:12;;;;;;;15.00;9.10;;;;;;;17.86;82.80;99623.19;7390472;19;20015;-70
2023/08/01 04:12:39;;;;;;;14.75;9.20;;;;;;;17.89;82.62;99619.28;7392825;19;20115;-71
2023/08/01 04:15:07;;;;;;;14.40;9.45;;;;;;;17.91;82.28;99622.63;7397529;19;20025;-70
2023/08/01 04:17:34;;;;;;;15.23;10.00;;;;;;;17.93;82.16;99624.09;7398377;19;20021;-70
2023/08/01 04:20:02;;;;;;;15.75;9.52;;;;;;;17.92;82.35;99629.63;7397861;19;20496;-64
2023/08/01 04:22:29;;;;;;;14.27;9.68;;;;;;;17.92;82.46;99633.13;7395378;19;20098;-65
2023/08/01 04:24:56;;;;;;;16.20;10.30;;;;;;;17.93;82.44;99639.31;7397318;19;20022;-65
2023/08/01 04:27:24;;;;;;;12.88;8.63;;;;;;;17.91;82.41;99634.16;7396159;19;20027;-64
2023/08/01 04:29:51;;;;;;;16.15;9.90;;;;;;;17.93;82.16;99633.97;7397572;19;20034;-63
2023/08/01 04:32:18;;;;;;;19.23;9.60;;;;;;;17.88;82.33;99642.56;7396488;19;20022;-65
2023/08/01 04:34:46;;;;;;;18.40;9.98;;;;;;;17.93;82.22;99637.50;7400566;19;20027;-64
2023/08/01 04:37:13;;;;;;;14.70;9.18;;;;;;;17.86;82.27;99641.09;7397417;19;20038;-63
2023/08/01 04:39:41;;;;;;;14.32;10.35;;;;;;;17.82;82.60;99658.53;7397364;19;20022;-69
2023/08/01 04:42:08;;;;;;;13.90;8.38;;;;;;;17.71;82.73;99644.59;7395107;19;20015;-62
2023/08/01 04:44:35;;;;;;;12.02;6.43;;;;;;;17.61;82.17;99646.72;7396668;19;20493;-63
2023/08/01 04:47:03;;;;;;;10.75;5.15;;;;;;;17.55;81.79;99644.78;7395226;19;20035;-62
2023/08/01 04:49:30;;;;;;;8.75;4.00;;;;;;;17.46;81.16;99649.41;7397043;19;20043;-63
2023/08/01 04:51:57;;;;;;;7.25;3.47;;;;;;;17.49;80.35;99646.38;7396547;19;20022;-63
2023/08/01 04:54:25;;;;;;;6.47;3.30;;;;;;;17.51;79.93;99651.53;7396360;19;20053;-63
2023/08/01 04:56:52;;;;;;;7.40;3.00;;;;;;;17.49;79.48;99649.03;7396043;19;20519;-65
2023/08/01 04:59:19;;;;;;;7.22;3.42;;;;;;;17.50;79.37;99637.31;7396583;19;20023;-64
2023/08/01 05:01:46;;;;;;;6.65;3.17;;;;;;;17.48;79.22;99636.69;7394018;19;20014;-64
2023/08/01 05:04:14;;;;;;;7.50;3.17;;;;;;;17.54;78.90;99637.78;7396356;19;20022;-60
2023/08/01 05:06:41;;;;;;;11.90;3.55;;;;;;;17.52;79.25;99629.94;7395889;19;20101;-62
2023/08/01 05:09:08;;;;;;;7.80;3.42;;;;;;;17.58;79.19;99639.06;7396642;19;20018;-62
2023/08/01 05:11:36;;;;;;;7.57;3.78;;;;;;;17.61;79.08;99635.19;7395619;19;20498;-63
2023/08/01 05:14:03;;;;;;;7.63;3.58;;;;;;;17.57;79.54;99634.72;7396127;19;20332;-63
2023/08/01 05:16:30;;;;;;;6.63;3.95;;;;;;;17.57;79.40;99626.69;7395106;19;20026;-66
2023/08/01 05:18:58;;;;;;;9.63;4.28;;;;;;;17.59;79.52;99634.53;7395973;19;20022;-64
2023/08/01 05:21:26;;;;;;;13.23;4.50;;;;;;;17.61;79.63;99627.16;7395767;19;20018;-68
2023/08/01 05:23:53;;;;;;;8.85;4.80;;;;;;;17.69;79.30;99627.88;7393113;19;20377;-68
2023/08/01 05:26:20;;;;;;;8.88;4.45;;;;;;;17.71;79.04;99623.19;7394980;19;20082;-65
2023/08/01 05:28:47;;;;;;;9.48;3.90;;;;;;;17.73;78.81;99628.34;7395470;19;20078;-65
2023/08/01 05:31:15;;;;;;;9.23;3.50;;;;;;;17.70;79.12;99626.84;7395389;19;20085;-60
2023/08/01 05:33:42;;;;;;;8.13;4.03;;;;;;;17.67;79.09;99621.91;7393044;19;20019;-64
2023/08/01 05:36:09;;;;;;;9.10;4.25;;;;;;;17.68;78.85;99612.00;7395022;19;20536;-64
2023/08/01 05:38:37;;;;;;;7.65;3.47;;;;;;;17.67;78.86;99624.56;7395571;19;20086;-63
2023/08/01 05:41:04;;;;;;;12.63;4.13;;;;;;;17.65;79.14;99625.78;7395024;19;20018;-63
2023/08/01 05:43:31;;;;;;;8.13;3.85;;;;;;;17.68;79.13;99620.03;7392395;19;20534;-63
2023/08/01 05:45:59;;;;;;;8.68;3.72;;;;;;;17.66;79.18;99624.75;7394156;19;20097;-65
2023/08/01 05:48:26;;;;;;;8.88;3.70;;;;;;;17.60;79.24;99625.50;7393689;19;20020;-62
2023/08/01 05:50:55;;;;;;;8.60;3.85;;;;;;;17.60;79.14;99629.00;7393679;19;20027;-61
2023/08/01 05:53:22;;;;;;;11.20;3.88;;;;;;;17.61;78.93;99627.16;7392482;19;20022;-65
2023/08/01 05:55:49;;;;;;;9.00;4.22;;;;;;;17.52;79.55;99637.97;7394225;19;20023;-68
2023/08/01 05:58:17;;;;;;;9.15;4.72;;;;;;;17.56;79.33;99638.44;7395116;19;20018;-69
2023/08/01 06:00:44;;;;;;;9.50;4.53;;;;;;;17.47;79.82;99637.69;7394706;19;20121;-65
2023/08/01 06:03:12;;;;;;;11.13;4.45;;;;;;;17.57;79.68;99644.63;7392802;19;20043;-64
2023/08/01 06:05:39;;;;;;;8.98;4.68;;;;;;;17.60;79.60;99653.09;7394018;19;20663;-67
2023/08/01 06:08:08;;;;;;;10.93;4.55;;;;;;;17.62;79.63;99644.88;7394115;19;20014;-66
2023/08/01 06:10:36;;;;;;;8.68;4.68;;;;;;;17.67;79.40;99648.66;7394228;19;20014;-66
2023/08/01 06:13:03;;;;;;;9.73;4.78;;;;;;;17.75;79.46;99645.91;7390809;19;20631;-62
2023/08/01 06:15:30;;;;;;;10.30;4.60;;;;;;;17.83;79.14;99642.31;7391620;19;20019;-64
2023/08/01 06:17:57;;;;;;;12.27;5.95;;;;;;;17.91;79.14;99655.59;7391727;19;20082;-64
2023/08/01 06:20:25;;;;;;;12.23;6.00;;;;;;;17.85;79.60;99650.97;7391748;19;20029;-69
2023/08/01 06:22:53;;;;;;;13.02;6.30;;;;;;;17.84;79.82;99654.66;7390213;19;20014;-67
2023/08/01 06:25:20;;;;;;;12.20;6.28;;;;;;;17.84;79.89;99656.53;7391464;19;20082;-66
2023/08/01 06:27:47;;;;;;;11.90;6.22;;;;;;;17.86;79.75;99649.13;7391438;19;20082;-64
2023/08/01 06:30:19;;;;;;;12.85;6.10;;;;;;;17.98;79.61;99659.19;7390657;19;20019;-61
2023/08/01 06:32:46;;;;;;;13.77;6.72;;;;;;;17.97;79.33;99660.22;7390148;19;20014;-62
2023/08/01 06:35:14;;;;;;;13.05;6.90;;;;;;;17.97;79.78;99649.50;7393822;19;20022;-66
2023/08/01 06:37:41;;;;;;;13.60;6.90;;;;;;;18.00;79.47;99658.97;7387731;19;20038;-64
2023/08/01 06:40:10;;;;;;;12.00;6.47;;;;;;;18.02;79.47;99654.28;7391692;19;20006;-64
2023/08/01 06:42:37;;;;;;;11.90;6.90;;;;;;;18.15;79.38;99662.44;7389420;19;20022;-65
2023/08/01 06:45:05;;;;;;;11.82;6.50;;;;;;;18.26;79.13;99661.97;7390793;19;20090;-63
2023/08/01 06:47:32;;;;;;;13.93;6.80;;;;;;;18.23;79.28;99656.97;7391195;19;20013;-62
2023/08/01 06:49:59;;;;;;;14.77;6.70;;;;;;;18.34;78.94;99663.69;7391581;19;20022;-62
2023/08/01 06:52:27;;;;;;;12.68;6.90;;;;;;;18.37;78.70;99667.84;7389947;19;20030;-62
2023/08/01 06:54:54;;;;;;;12.82;7.22;;;;;;;18.54;78.64;99665.75;7390720;19;20526;-62
2023/08/01 06:57:22;;;;;;;10.95;6.05;;;;;;;18.65;77.96;99649.97;7390818;19;20029;-63
2023/08/01 06:59:49;;;;;;;11.77;6.03;;;;;;;18.72;78.10;99661.63;7390843;19;20014;-62
2023/08/01 07:02:16;;;;;;;11.52;5.60;;;;;;;18.62;78.31;99657.56;7389174;19;20025;-62
2023/08/01 07:04:44;;;;;;;11.60;5.40;;;;;;;18.45;78.88;99657.00;7389556;19;20050;-62
2023/08/01 07:07:11;;;;;;;12.07;5.75;;;;;;;18.31;78.81;99653.34;7390877;19;20034;-62
2023/08/01 07:09:39;;;;;;;14.32;5.95;;;;;;;18.22;79.27;99657.19;7390353;19;20047;-62
2023/08/01 07:12:06;;;;;;;14.95;6.13;;;;;;;18.20;79.65;99656.53;7389735;19;20026;-62
2023/08/01 07:14:33;;;;;;;10.70;4.77;;;;;;;18.13;79.26;99659.16;7247142;19;2784303;-64
2023/08/01 07:17:01;;;;;;;8.77;4.22;;;;;;;18.25;78.61;99662.16;7392385;19;20776;-62
2023/08/01 07:19:28;;;;;;;7.97;3.88;;;;;;;18.36;78.17;99674.25;7392184;19;20015;-64
2023/08/01 07:21:55;;;;;;;8.02;3.53;;;;;;;18.42;77.95;99673.47;7391810;19;20016;-64
2023/08/01 07:24:25;;;;;;;6.75;3.10;;;;;;;18.50;77.17;99676.00;7392157;19;20018;-63
2023/08/01 07:26:55;;;;;;;6.35;2.70;;;;;;;18.62;76.27;99673.66;7391403;19;20021;-63
2023/08/01 07:29:22;;;;;;;6.97;2.50;;;;;;;18.62;76.39;99679.88;7391884;19;20089;-63
2023/08/01 07:31:49;;;;;;;6.22;2.13;;;;;;;18.78;75.80;99691.38;7391041;19;20506;-64
2023/08/01 07:34:17;;;;;;;5.75;2.15;;;;;;;18.68;75.74;99681.75;7392887;19;20034;-62
2023/08/01 07:36:48;;;;;;;6.50;1.80;;;;;;;18.57;75.10;99686.81;7390791;19;20158;-62
2023/08/01 07:39:16;;;;;;;3.13;1.50;;;;;;;18.56;74.51;99683.31;7391478;19;20074;-61
2023/08/01 07:41:43;;;;;;;5.35;1.85;;;;;;;18.37;74.88;99690.13;7390392;19;20543;-62
2023/08/01 07:44:11;;;;;;;2.85;1.52;;;;;;;18.38;74.93;99689.09;7390208;19;20024;-62
2023/08/01 07:46:38;;;;;;;5.63;1.98;;;;;;;18.43;75.20;99691.19;7390646;19;20042;-62
2023/08/01 07:49:06;;;;;;;4.03;1.98;;;;;;;18.44;75.19;99685.66;7391511;19;20011;-62
2023/08/01 07:51:34;;;;;;;4.75;1.83;;;;;;;18.39;75.06;99681.88;7391219;19;20066;-62
2023/08/01 07:54:01;;;;;;;5.43;1.70;;;;;;;18.37;75.51;99686.63;7391750;19;20014;-63
2023/08/01 07:56:28;;;;;;;5.18;1.90;;;;;;;18.39;75.46;99689.91;7390433;19;20022;-64
2023/08/01 07:58:56;;;;;;;7.15;1.85;;;;;;;18.39;74.85;99680.06;7390389;19;20065;-63
2023/08/01 08:01:23;;;;;;;3.70;1.35;;;;;;;18.44;74.43;99672.25;7390766;19;20014;-60
2023/08/01 08:03:50;;;;;;;3.63;1.80;;;;;;;18.50;74.47;99676.84;7389051;19;20101;-61
2023/08/01 08:06:21;;;;;;;5.72;1.85;;;;;;;18.58;73.32;99683.94;7388993;19;20516;-63
2023/08/01 08:08:48;;;;;;;5.38;2.22;;;;;;;18.70;73.22;99677.09;7390634;19;20014;-66
2023/08/01 08:11:16;;;;;;;5.05;2.00;;;;;;;18.93;73.36;99698.34;7390817;19;20550;-66
2023/08/01 08:13:43;;;;;;;5.65;1.80;;;;;;;18.98;72.16;99681.66;7388329;19;20086;-66
2023/08/01 08:16:10;;;;;;;4.55;1.80;;;;;;;18.96;72.85;99684.53;7389694;19;20055;-63
2023/08/01 08:18:38;;;;;;;6.57;2.15;;;;;;;19.07;72.72;99685.00;7390539;19;20023;-63
2023/08/01 08:21:05;;;;;;;6.63;2.20;;;;;;;18.82;73.01;99690.81;7388870;19;20361;-63
2023/08/01 08:23:32;;;;;;;6.35;2.00;;;;;;;18.90;73.11;99698.72;7388476;19;20043;-62
2023/08/01 08:26:00;;;;;;;5.35;2.30;;;;;;;19.03;72.23;99692.63;7389892;19;20022;-62
2023/08/01 08:28:32;;;;;;;4.85;2.17;;;;;;;19.04;72.33;99696.13;7389326;19;20019;-65
2023/08/01 08:31:04;;;;;;;8.17;2.33;;;;;;;19.03;72.49;99689.94;7392097;19;20026;-64
2023/08/01 08:33:31;;;;;;;6.28;2.08;;;;;;;19.38;71.56;99685.44;7391349;19;20283;-65
2023/08/01 08:35:59;;;;;;;5.35;2.10;;;;;;;19.58;70.61;99687.44;7392125;19;20360;-65
2023/08/01 08:38:28;;;;;;;6.82;2.30;;;;;;;19.60;69.62;99678.16;7392309;19;20034;-65
2023/08/01 08:41:10;;;;;;;6.18;2.20;;;;;;;19.65;69.52;99680.25;7392309;19;20015;-65
2023/08/01 08:43:37;;;;;;;5.10;2.13;;;;;;;19.53;70.63;99681.81;7391198;19;20472;-67
2023/08/01 08:46:46;;;;;;;7.88;2.70;;;;;;;19.41;70.20;99678.84;7389293;19;20021;-68
2023/08/01 08:49:15;;;;;;;4.47;1.85;;;;;;;19.19;71.36;99692.34;7390875;19;20074;-65
2023/08/01 08:51:43;;;;;;;6.47;1.92;;;;;;;19.15;70.59;99683.00;7391215;19;20025;-64
2023/08/01 08:54:11;;;;;;;3.78;1.40;;;;;;;19.21;70.02;99692.97;7389301;19;20025;-66
2023/08/01 08:56:40;;;;;;;3.50;1.40;;;;;;;19.16;70.32;99699.97;7388090;19;20030;-66
2023/08/01 08:59:11;;;;;;;7.22;2.45;;;;;;;19.12;69.31;99693.34;7394090;19;20023;-66
2023/08/01 09:01:39;;;;;;;5.45;2.45;;;;;;;19.33;69.24;99695.13;7396234;19;20093;-65
2023/08/01 09:04:07;;;;;;;4.72;2.10;;;;;;;19.47;69.03;99683.44;7393783;19;20022;-65
2023/08/01 09:06:44;;;;;;;3.90;1.60;;;;;;;19.68;68.38;99686.06;7395409;19;20022;-65
2023/08/01 09:09:15;;;;;;;3.28;1.50;;;;;;;19.73;68.11;99688.19;7395777;19;20023;-65
2023/08/01 09:11:48;;;;;;;6.28;1.67;;;;;;;19.74;68.11;99689.00;7395536;19;20464;-65
2023/08/01 09:14:16;;;;;;;6.47;1.70;;;;;;;19.66;68.93;99687.31;7395108;19;20022;-66
2023/08/01 09:16:45;;;;;;;4.05;1.70;;;;;;;19.62;69.51;99681.50;7395519;19;20030;-65
2023/08/01 09:19:17;;;;;;;3.55;1.40;;;;;;;19.72;69.17;99676.56;7395628;19;20014;-65
2023/08/01 09:21:46;;;;;;;4.32;1.30;;;;;;;19.88;68.06;99679.97;7395607;19;20015;-65
2023/08/01 09:24:16;;;;;;;4.05;1.40;;;;;;;20.11;66.93;99675.13;7393627;19;20023;-65
2023/08/01 09:26:45;;;;;;;3.47;1.30;;;;;;;20.31;65.76;99668.97;7395110;19;20015;-65
2023/08/01 09:29:13;;;;;;;5.05;1.60;;;;;;;20.26;65.23;99660.66;7395390;19;20058;-66
2023/08/01 09:31:42;;;;;;;5.15;1.20;;;;;;;20.10;64.75;99669.91;7395034;19;20014;-66
2023/08/01 09:34:21;;;;;;;3.95;1.17;;;;;;;20.00;64.10;99666.81;7398258;19;20015;-65
2023/08/01 09:36:49;;;;;;;4.13;1.10;;;;;;;19.82;65.39;99676.22;7394855;19;20018;-65
2023/08/01 09:39:18;;;;;;;4.20;1.48;;;;;;;19.64;66.49;99668.69;7395234;19;20018;-65
2023/08/01 09:41:54;;;;;;;4.72;1.52;;;;;;;19.34;68.91;99678.81;7392605;19;20014;-65
2023/08/01 09:44:22;;;;;;;5.50;1.60;;;;;;;19.03;70.74;99676.53;7393097;19;20022;-65
2023/08/01 09:46:57;;;;;;;4.88;1.50;;;;;;;18.98;71.03;99676.28;7393370;19;20019;-66
2023/08/01 09:49:25;;;;;;;4.88;1.50;;;;;;;19.07;71.69;99685.00;7394943;19;20054;-66
2023/08/01 09:51:52;;;;;;;5.25;1.63;;;;;;;19.19;71.20;99678.94;7394691;19;20129;-67
2023/08/01 09:54:21;;;;;;;2.92;1.48;;;;;;;19.13;71.42;99668.16;7394619;19;20035;-66
2023/08/01 09:56:51;;;;;;;2.90;1.35;;;;;;;19.21;71.72;99671.50;7393851;19;20497;-66
2023/08/01 09:59:23;;;;;;;4.22;1.40;;;;;;;19.09;71.74;99683.81;7394213;19;20015;-66
2023/08/01 10:01:53;;;;;;;3.83;1.65;;;;;;;18.93;72.29;99684.91;7394564;19;20019;-66
2023/08/01 10:04:26;;;;;;;3.08;1.45;;;;;;;18.88;72.49;99689.19;7392200;19;20078;-66
2023/08/01 10:06:59;;;;;;;3.30;1.55;;;;;;;18.70;72.95;99687.81;7392914;19;20074;-66
2023/08/01 10:09:29;;;;;;;6.43;1.53;;;;;;;18.61;73.60;99678.19;7391474;19;20018;-66
2023/08/01 10:11:58;;;;;;;5.93;1.50;;;;;;;18.81;73.42;99675.75;7393027;19;20021;-66
2023/08/01 10:14:26;;;;;;;4.60;1.40;;;;;;;19.06;72.90;99678.81;7393549;19;20138;-66
2023/08/01 10:16:53;;;;;;;6.28;1.70;;;;;;;19.12;72.91;99677.22;7393982;19;20006;-65
2023/08/01 10:19:21;;;;;;;5.35;2.20;;;;;;;19.04;73.57;99672.84;7394305;19;20014;-66
2023/08/01 10:21:49;;;;;;;4.75;1.50;;;;;;;19.22;73.63;99667.78;7391615;19;20025;-65
2023/08/01 10:24:19;;;;;;;4.97;1.70;;;;;;;19.46;72.88;99668.38;7390155;19;20019;-66
2023/08/01 10:26:46;;;;;;;3.85;1.45;;;;;;;19.56;71.53;99666.13;7392821;19;20022;-66
2023/08/01 10:29:14;;;;;;;3.70;1.55;;;;;;;19.84;70.21;99676.88;7393111;19;20015;-66
2023/08/01 10:31:54;;;;;;;3.70;1.33;;;;;;;20.10;70.10;99665.38;7393161;19;20097;-66
2023/08/01 10:34:22;;;;;;;4.75;1.35;;;;;;;20.31;69.52;99671.66;7396461;19;20176;-65
2023/08/01 10:36:57;;;;;;;2.95;1.20;;;;;;;20.19;68.92;99666.03;7392011;19;20010;-65
2023/08/01 10:39:26;;;;;;;4.05;1.40;;;;;;;19.87;69.59;99678.31;7393270;19;20022;-64
2023/08/01 10:42:05;;;;;;;3.80;1.50;;;;;;;19.85;68.98;99670.47;7393267;19;20036;-66
2023/08/01 10:44:34;;;;;;;5.05;1.65;;;;;;;19.85;69.23;99683.06;7390109;19;20014;-66
2023/08/01 10:47:06;;;;;;;3.53;1.10;;;;;;;19.89;68.64;99687.84;7391719;19;20022;-66
2023/08/01 10:49:35;;;;;;;3.70;1.00;;;;;;;19.92;68.24;99670.50;7391076;19;20547;-65
2023/08/01 10:52:26;;;;;;;3.83;1.05;;;;;;;19.95;68.07;99688.88;7393034;19;20018;-66
2023/08/01 10:55:03;;;;;;;3.00;1.17;;;;;;;19.97;66.90;99678.78;7391845;19;20492;-66
2023/08/01 10:57:32;;;;;;;3.97;1.13;;;;;;;19.90;67.85;99684.13;7392502;19;20035;-67
2023/08/01 11:00:09;;;;;;;2.63;0.95;;;;;;;19.98;67.40;99680.44;7391084;19;20089;-65
2023/08/01 11:02:37;;;;;;;3.75;1.10;;;;;;;20.04;66.75;99686.88;7395310;19;20043;-66
2023/08/01 11:05:07;;;;;;;1.73;1.10;;;;;;;19.93;67.45;99688.28;7390583;19;20018;-67
2023/08/01 11:07:34;;;;;;;4.35;1.15;;;;;;;19.90;67.55;99678.75;7393076;19;20579;-66
2023/08/01 11:10:13;;;;;;;2.97;1.20;;;;;;;20.04;66.84;99690.38;7390580;19;20528;-64
2023/08/01 11:13:00;;;;;;;4.95;1.40;;;;;;;20.16;66.96;99685.25;7387826;19;20018;-65
2023/08/01 11:15:48;;;;;;;3.10;1.10;;;;;;;20.22;65.91;99687.13;7386810;19;20015;-64
2023/08/01 11:18:44;;;;;;;4.13;1.30;;;;;;;20.37;65.42;99700.41;7387286;19;20018;-63
2023/08/01 11:21:35;;;;;;;1.83;0.95;;;;;;;20.39;65.55;99690.28;7384659;19;20104;-64
2023/08/01 11:24:23;;;;;;;3.38;1.17;;;;;;;20.30;65.98;99692.34;7384082;19;20018;-66
2023/08/01 11:27:10;;;;;;;3.20;1.00;;;;;;;20.33;65.76;99697.28;7386268;19;20034;-65
2023/08/01 11:29:57;;;;;;;2.45;1.23;;;;;;;20.30;65.76;99695.03;7385671;19;20026;-63
2023/08/01 11:32:44;;;;;;;2.13;0.75;;;;;;;20.30;65.62;99699.56;7388356;19;20039;-64
2023/08/01 11:35:17;;;;;;;3.50;1.20;;;;;;;20.28;65.46;99701.63;7394585;19;20022;-64
2023/08/01 11:37:46;;;;;;;3.65;0.95;;;;;;;20.16;65.70;99699.53;7395198;19;20018;-64
2023/08/01 11:40:13;;;;;;;4.72;1.30;;;;;;;20.35;65.95;99697.94;7390666;19;20750;-64